« Back
NWS Peachtree City, Ga » Text Product » MCN Terminal Aerodrome Forecast


Printer-friendly Version
Current Version              Previous Versions:   1  2  3  4  5  6  7  8  9  

Terminal Aerodrome Forecast

574
FTUS42 KFFC 192300
TAFMCN
TAF
KMCN 192336Z 2000/2024 14005KT P6SM SCT025 BKN040
     FM200200 25005KT P6SM SCT040 SCT080
     FM200800 VRB03KT 3SM BR SCT012
     FM201400 29007KT P6SM SCT040
     FM201700 28010KT P6SM SCT045
      TEMPO 2018/2022 4SM -TSRA BKN030CB=



USA.gov is the U.S. government's official web portal to all federal, state and local government web resources and services.